Home > Products > Valid Products > TAF

000
FTUS41 KCLE 292000 AAB
TAFCLE
TAF AMD
KCLE 292022Z 2920/3024 19012KT 6SM -RASN SCT015 OVC025
      TEMPO 2920/2922 2SM -SN OVC012
     FM292200 23015G25KT 4SM -RASN OVC015
      TEMPO 2922/2923 2SM -SN OVC008
     FM292300 27015G25KT 3/4SM -SN BR OVC004
     FM300400 30015G25KT 4SM -SN BKN008 OVC015
     FM301300 30012G20KT P6SM SCT008 OVC015=



000
FTUS41 KCLE 292000 AAA
TAFFDY
TAF AMD
KFDY 292016Z 2920/3018 26015G25KT P6SM VCSH OVC012
      TEMPO 2920/2922 2SM -SN BR OVC004
     FM300000 31015G25KT P6SM OVC015
     FM300800 32013G22KT P6SM OVC020=



000
FTUS41 KCLE 292000 AAA
TAFCLE
TAF AMD
KCLE 292014Z 2920/3024 19012G22KT 6SM -RASN SCT015 OVC025
     FM292200 23015G25KT 4SM -RASN OVC015
      TEMPO 2922/2923 2SM -SN OVC008
     FM292300 27015G25KT 3/4SM -SN BR OVC004
     FM300400 30015G25KT 4SM -SN BKN008 OVC015
     FM301300 30012G20KT P6SM SCT008 OVC015=



000
FTUS41 KCLE 291900 AAB
TAFERI
TAF AMD
KERI 291955Z 2920/3018 19015G25KT 2SM -SN BKN020 OVC030
     FM292300 21017G27KT 3/4SM -SN BR BKN008 OVC025
     FM300400 24015G25KT 3SM -SN BKN008 OVC015
     FM300800 29012G23KT 2SM -SN OVC012
     FM301300 31012G22KT 2SM -SN OVC012=



000
FTUS41 KCLE 291900 AAB
TAFTOL
TAF AMD
KTOL 291943Z 2920/3018 22010KT 4SM -SN BR BKN008 OVC025
      TEMPO 2920/2922 2SM -SN OVC008
     FM292200 30018G30KT 3SM -SN BR OVC004
     FM300100 31015G25KT P6SM OVC015=



000
FTUS41 KCLE 291900 AAA
TAFTOL
TAF AMD
KTOL 291908Z 2919/3018 22010KT 3SM -RA BR BKN008 OVC025
      TEMPO 2919/2922 2SM -RASN OVC008
     FM292200 30018G30KT 3SM -SN BR OVC004
     FM300100 31015G25KT P6SM OVC015=



000
FTUS41 KCLE 291900 AAA
TAFYNG
TAF AMD
KYNG 291906Z 2919/3018 19010KT P6SM BKN005 OVC012
      TEMPO 2922/2924 2SM -RASN OVC006
     FM300000 24013G23KT 2SM -SHSN OVC008
      TEMPO 3000/3003 3/4SM -SN BR OVC002
     FM300700 27012G22KT 3SM -SN BKN006 OVC012
     FM301200 29013G24KT 5SM -SHSN OVC010=



000
FTUS41 KCLE 291700 AAA
TAFERI
TAF AMD
KERI 291731Z 2918/3018 19019G30KT 6SM -SN SCT020 OVC040
      TEMPO 2918/2920 2SM -SN BKN020 OVC030
     FM292300 21017G27KT 3/4SM -SN BR BKN008 OVC025
     FM300400 24015G25KT 3SM -SN BKN008 OVC015
     FM300800 29012G23KT 2SM -SN OVC012
     FM301300 31012G22KT 2SM -SN OVC012=



000
FTUS41 KCLE 291700
TAFMFD
TAF
KMFD 291729Z 2918/3018 22015G25KT P6SM VCSH BKN025 OVC040
      TEMPO 2920/2922 2SM -RASN OVC018
     FM292200 25017G27KT P6SM VCSH OVC009
      TEMPO 2922/2923 2SM -SN BR OVC002
     FM300300 27015G23KT P6SM OVC012
     FM300700 30012G22KT 4SM BR BKN008 OVC015
     FM301200 32014G22KT P6SM OVC022=



000
FTUS41 KCLE 291700
TAFCAK
TAF
KCAK 291729Z 2918/3018 22015G25KT P6SM VCSH BKN030 OVC040
      TEMPO 2918/2919 5SM -FZRAPL OVC020
     FM291900 19015G21KT P6SM VCSH SCT009 OVC020
      TEMPO 2921/2923 2SM -RASN OVC006
     FM292300 24012G20KT 3/4SM -SN BR OVC002
     FM300400 29012G22KT 3SM -SN BKN006 OVC012
     FM301300 31014G24KT P6SM SCT008 OVC015=



000
FTUS41 KCLE 291700
TAFYNG
TAF
KYNG 291729Z 2918/3018 19014KT P6SM BKN020 OVC035
      TEMPO 2918/2919 2SM -FZRAPL BR OVC020
     FM292000 19015G21KT P6SM VCSH OVC050
      TEMPO 2922/2924 2SM -RASN OVC006
     FM300000 24013G23KT 2SM -SHSN OVC008
      TEMPO 3000/3003 3/4SM -SN BR OVC002
     FM300700 27012G22KT 3SM -SN BKN006 OVC012
     FM301200 29013G24KT 5SM -SHSN OVC010=



000
FTUS41 KCLE 291700
TAFFDY
TAF
KFDY 291729Z 2918/3018 22016G22KT P6SM VCSH BKN020 OVC030
      TEMPO 2919/2920 2SM -RASN OVC008
     FM292000 26015G25KT P6SM VCSH OVC012
      TEMPO 2920/2922 3SM -SN BR OVC004
     FM300000 31015G25KT P6SM OVC015
     FM300800 32013G22KT P6SM OVC020=



000
FTUS41 KCLE 291700
TAFERI
TAF
KERI 291729Z 2918/3018 19019G30KT 6SM -SN SCT020 OVC040
      TEMPO 2921/2923 2SM -RASN BKN020 OVC030
     FM292300 21017G27KT 3/4SM -SN BR BKN008 OVC025
     FM300400 24015G25KT 3SM -SN BKN008 OVC015
     FM300800 29012G23KT 2SM -SN OVC012
     FM301300 31012G22KT 2SM -SN OVC012=



000
FTUS41 KCLE 291700
TAFTOL
TAF
KTOL 291729Z 2918/3018 22010KT P6SM BKN020 OVC030
     FM291900 25014G22KT P6SM SCT008 OVC025
      TEMPO 2919/2922 2SM -RASN OVC008
     FM292200 30018G30KT 3SM -SN BR OVC004
     FM300100 31015G25KT P6SM OVC015=



000
FTUS41 KCLE 291700
TAFCLE
TAF
KCLE 291729Z 2918/3024 19012G22KT 6SM -RASN SCT025 OVC040
      TEMPO 2918/2920 4SM -SN BR OVC020
     FM292200 23015G25KT 4SM -RASN OVC015
      TEMPO 2922/2923 2SM -SN OVC008
     FM292300 27015G25KT 3/4SM -SN BR OVC004
     FM300400 30015G25KT 4SM -SN BKN008 OVC015
     FM301300 30012G20KT P6SM SCT008 OVC015=



000
FTUS41 KCLE 291600 AAA
TAFCAK
TAF AMD
KCAK 291634Z 2917/3012 19014G24KT 6SM -FZRASN OVC035
     FM291900 19015G21KT 3SM -DZ BR SCT006 OVC020
      TEMPO 2921/2923 2SM -RASN OVC006
     FM292300 24012G20KT 3/4SM -SN BR OVC002
     FM300400 29012G22KT 3SM -SN BKN006 OVC012=



000
FTUS41 KCLE 291400 AAA
TAFCLE
TAF AMD
KCLE 291456Z 2915/3018 20015G25KT P6SM SCT045 OVC060
      TEMPO 2915/2917 -DZ BKN025 OVC035
     FM291700 21012G20KT 3SM -DZ BR SCT008 OVC015
      TEMPO 2921/2923 2SM -RASN OVC008
     FM292300 29015G25KT 3/4SM -SN BR OVC004
     FM300400 30015G25KT 4SM -SN BKN008 OVC015
     FM301300 30012G20KT P6SM SCT008 OVC015=



000
FTUS41 KCLE 291400 AAA
TAFMFD
TAF AMD
KMFD 291453Z 2915/3012 18017G23KT 6SM -RA BKN045 OVC060
     FM291700 20014G22KT 2SM -DZ BR SCT006 OVC012
      TEMPO 2920/2922 2SM -RASN OVC006
     FM292200 28018G30KT 2SM -SN BR OVC002
     FM300100 30015G25KT 4SM BR BKN008 OVC015=



000
FTUS41 KCLE 291400 AAA
TAFFDY
TAF AMD
KFDY 291425Z 2914/3012 18015G22KT P6SM BKN060 OVC070
     FM291500 18016G22KT 4SM -DZ BR SCT008 OVC025
      TEMPO 2917/2919 2SM -RASN OVC008
     FM291900 29018G30KT 3SM -SN BR OVC004
     FM300000 31015G25KT P6SM OVC015=



000
FTUS41 KCLE 291400 AAA
TAFTOL
TAF AMD
KTOL 291424Z 2914/3012 16005KT P6SM BKN045 OVC090
     FM291600 23012KT 4SM BR VCSH OVC025
     FM291800 22014KT 4SM -DZ BR SCT008 OVC025
      TEMPO 2918/2920 2SM -RASN OVC008
     FM292000 30018G30KT 3SM -SN BR OVC004
     FM300100 30015G25KT P6SM OVC015=



000
FTUS41 KCLE 291100 RRA
TAFYNG
TAF
KYNG 291142Z 2912/3012 15012G20KT P6SM SCT050 OVC080
      TEMPO 2914/2918 4SM -FZRAPL BKN025 OVC035
     FM291800 19014KT 2SM -DZ BR SCT006 OVC012
      TEMPO 2922/2924 2SM -RASN OVC006
     FM300000 24012G20KT 3/4SM -SN BR OVC002
     FM300500 29012G22KT 3SM -SN BKN006 OVC012=



000
FTUS41 KCLE 291100 RRA
TAFCLE
TAF
KCLE 291142Z 2912/3018 18015G25KT P6SM SCT045 OVC080
      TEMPO 2913/2916 -FZDZPL BKN025 OVC035
     FM291600 21012G20KT 3SM -DZ BR SCT008 OVC015
      TEMPO 2921/2923 2SM -RASN OVC008
     FM292300 29015G25KT 3/4SM -SN BR OVC004
     FM300400 30015G25KT 4SM -SN BKN008 OVC015
     FM301300 30012G20KT P6SM SCT008 OVC015=



000
FTUS41 KCLE 291100 RRA
TAFERI
TAF
KERI 291142Z 2912/3012 16018G35KT P6SM OVC050
      TEMPO 2914/2918 -FZDZPL BKN025 OVC035
     FM291800 19015G25KT 3SM -PLDZ BR SCT008 OVC015
      TEMPO 2921/2923 2SM -RASN OVC008
     FM292300 27015G25KT 3/4SM -SN BR OVC004
     FM300400 30015G25KT 3SM -SN BKN008 OVC015=



000
FTUS41 KCLE 291100 RRA
TAFFDY
TAF
KFDY 291142Z 2912/3012 16015G25KT P6SM VCSH BKN035 OVC100
      TEMPO 2912/2913 -FZDZPL BKN025 OVC035
     FM291300 19015G25KT P6SM SCT035 OVC080
     FM291500 18016G22KT 4SM -DZ BR SCT008 OVC025
      TEMPO 2917/2919 2SM -RASN OVC008
     FM291900 29018G30KT 3SM -SN BR OVC004
     FM300000 31015G25KT P6SM OVC015=



000
FTUS41 KCLE 291100 RRA
TAFMFD
TAF
KMFD 291142Z 2912/3012 17018G26KT P6SM VCSH SCT040 OVC080
      TEMPO 2913/2915 5SM -FZRAPL BKN025 OVC035
     FM291500 20014G22KT 2SM -DZ BR SCT006 OVC012
      TEMPO 2920/2922 2SM -RASN OVC006
     FM292200 28018G30KT 2SM -SN BR OVC002
     FM300100 30015G25KT 4SM BR BKN008 OVC015=



000
FTUS41 KCLE 291100 RRA
TAFCAK
TAF
KCAK 291142Z 2912/3012 17015G25KT P6SM SCT045 OVC080
      TEMPO 2913/2917 4SM -FZRAPL BKN025 OVC035
     FM291700 19014KT 2SM -DZ BR SCT006 OVC012
      TEMPO 2921/2923 2SM -RASN OVC006
     FM292300 24012G20KT 3/4SM -SN BR OVC002
     FM300400 29012G22KT 3SM -SN BKN006 OVC012=



000
FTUS41 KCLE 291100 RRA
TAFTOL
TAF
KTOL 291142Z 2912/3012 16010KT P6SM VCSH BKN035 OVC100
      TEMPO 2912/2913 -FZDZPL BKN025 OVC035
     FM291400 19012G20KT P6SM SCT035 OVC080
     FM291600 22010KT 4SM -DZ BR SCT008 OVC025
      TEMPO 2918/2920 2SM -RASN OVC008
     FM292000 30018G30KT 3SM -SN BR OVC004
     FM300100 30015G25KT P6SM OVC015=



000
FTUS41 KCLE 291000 AAA
TAFMFD
TAF AMD
KMFD 291028Z 2910/3006 15014G22KT P6SM OVC080
     FM291300 16015G25KT P6SM OVC050
      TEMPO 2913/2915 -FZRA SCT012 OVC035
     FM291500 18015G25KT 4SM -FZRA BR OVC012
      TEMPO 2915/2918 2SM -FZRASNPL BR OVC008
     FM291800 22010G20KT 2SM -RA BR OVC007
     FM292200 27010G20KT 2SM -SN BR OVC007
     FM300400 29010G20KT P6SM OVC015=



000
FTUS41 KCLE 291000 AAA
TAFFDY
TAF AMD
KFDY 291026Z 2910/3006 16014G22KT P6SM SCT025 OVC050
      TEMPO 2910/2913 -FZRA
     FM291300 18015G25KT 4SM -FZRA BR SCT015 OVC025
     FM291700 21012KT 2SM -RA BR SCT007 OVC015
     FM292000 27015G25KT 4SM -SN BR OVC007
     FM292300 29015G25KT P6SM OVC015=



000
FTUS41 KCLE 291000 AAA
TAFTOL
TAF AMD
KTOL 291024Z 2910/3006 15008KT P6SM SCT050 OVC100
      TEMPO 2910/2913 -FZRA SCT012 OVC050
     FM291300 19012G18KT 4SM -FZRA BR OVC012
      TEMPO 2914/2917 2SM -FZRAPL BR OVC008
     FM291700 23010KT 1 1/2SM -RA BR OVC008
     FM292000 28010G20KT 3SM -SN BR BKN008 OVC015
     FM300400 29015G25KT P6SM SCT015 BKN025=



000
FTUS41 KCLE 290800 AAA
TAFCLE
TAF AMD
KCLE 290857Z 2909/3012 16012G20KT P6SM SCT050 OVC100
      TEMPO 2913/2916 -FZRA SCT012 OVC050
     FM291600 18014G20KT 5SM -FZRA BR OVC012
      TEMPO 2916/2918 3SM -RAPL OVC008
     FM291800 20012KT 1 1/2SM -SN OVC008
     FM300100 27014KT 4SM -SN BR OVC008
     FM300400 29015G25KT P6SM OVC015=



000
FTUS41 KCLE 290500
TAFERI
TAF
KERI 290528Z 2906/3006 18004KT P6SM SCT120 OVC250
     FM290800 17011KT P6SM OVC120
     FM291300 16014G20KT P6SM OVC080
     FM291500 16014G22KT P6SM VCSH OVC045
      TEMPO 2916/2918 -RASN OVC035
     FM291800 18010G18KT 1 1/2SM -SN BR OVC007
     FM300400 29010G20KT 4SM -SN BR OVC007=



000
FTUS41 KCLE 290500
TAFYNG
TAF
KYNG 290528Z 2906/3006 15007KT P6SM BKN150 OVC250
     FM291300 15008KT P6SM OVC080
     FM291500 16011KT P6SM VCSH OVC045
      TEMPO 2916/2918 6SM -RASN BR OVC025
     FM291800 19014G20KT 2SM -RA BR OVC007
     FM292000 20011KT 1 1/2SM -SN BR OVC007
     FM292300 25013KT 2SM -SN BR OVC007
     FM300400 28011KT 4SM -SN BR OVC007=



000
FTUS41 KCLE 290500
TAFMFD
TAF
KMFD 290528Z 2906/3006 16010G15KT P6SM OVC250
     FM291100 15014G22KT P6SM OVC060
     FM291300 16015G25KT 6SM BR SCT012 OVC050
      TEMPO 2913/2915 5SM -FZRA BR OVC012
     FM291500 18015G25KT 4SM -FZRA BR OVC012
      TEMPO 2915/2918 2SM -FZRASNPL BR OVC008
     FM291800 22010G20KT 1 1/2SM -RA BR OVC007
     FM292100 22010G20KT 1 1/2SM -SN BR OVC007
     FM292300 27010G20KT 2SM -SN BR OVC007
     FM300400 29010G20KT P6SM OVC015=



000
FTUS41 KCLE 290500
TAFTOL
TAF
KTOL 290528Z 2906/3006 15004KT P6SM OVC250
     FM291100 17012G16KT P6SM OVC050
      TEMPO 2912/2913 5SM -FZRA BR OVC012
     FM291300 19012G18KT 4SM -FZRA BR OVC012
      TEMPO 2914/2917 2SM -FZRAPL BR OVC008
     FM291700 23009KT 1 1/2SM -RA BR OVC007
     FM292000 28010G20KT 2SM -SN BR OVC007
     FM292200 29018G25KT 4SM -SN BR OVC015
     FM300400 29020G25KT P6SM BKN050=



000
FTUS41 KCLE 290500
TAFFDY
TAF
KFDY 290528Z 2906/3006 14012G20KT P6SM OVC250
     FM290900 14012KT P6SM OVC060
     FM291100 16014G22KT 6SM BR SCT012 OVC050
      TEMPO 2911/2913 5SM -FZRA BR OVC012
     FM291300 18015G25KT 4SM -FZRA BR OVC012
      TEMPO 2914/2917 2SM -FZRAPL BR OVC008
     FM291700 21012KT 2SM -RA BR OVC015
     FM291900 25012KT 2SM -RA BR OVC007
     FM292000 27015G25KT 4SM -SN BR OVC007
     FM292300 29015G25KT P6SM OVC015=



000
FTUS41 KCLE 290500
TAFCAK
TAF
KCAK 290528Z 2906/3006 18010KT P6SM SCT120 OVC250
     FM291200 15012KT P6SM OVC060
     FM291400 17014G20KT P6SM VCSH OVC045
      TEMPO 2914/2917 5SM -FZRA BR OVC025
     FM291700 19014G20KT 2SM -RA BR OVC007
     FM292000 20011KT 1 1/2SM -SN BR OVC007
     FM292300 25013KT 2SM -SN BR OVC007
     FM300100 28012G21KT 4SM -SN BR OVC007=



000
FTUS41 KCLE 290500
TAFCLE
TAF
KCLE 290528Z 2906/3012 15008KT P6SM OVC140
     FM291200 16012KT P6SM OVC050
     FM291400 18014G20KT P6SM -FZRA OVC035
      TEMPO 2914/2916 5SM -FZRA BR OVC012
     FM291600 18014G20KT 4SM -FZRA BR OVC012
      TEMPO 2916/2918 3SM -RASNPL OVC008
     FM291800 20012KT 1 1/2SM -SN OVC008
     FM292300 20012KT 2SM -SN OVC008
     FM300100 27014KT 4SM -SN BR OVC008
     FM300400 29015G25KT P6SM OVC015=



000
FTUS41 KCLE 290200 AAA
TAFCLE
TAF AMD
KCLE 290253Z 2903/3006 19007KT P6SM BKN140 OVC250
     FM290600 15008KT P6SM OVC120
     FM291200 16012KT P6SM OVC050
     FM291400 18014G20KT P6SM -FZRA OVC035
      TEMPO 2914/2916 5SM -FZRA BR OVC012
     FM291600 18014G20KT 4SM -FZRA BR OVC012
      TEMPO 2916/2918 3SM -RASNPL OVC008
     FM291800 20012KT 1 1/2SM -SN OVC008
     FM292300 20012KT 2SM -SN OVC008
     FM300100 27014KT 4SM -SN BR OVC008=



000
FTUS41 KCLE 282300 RRA
TAFERI
TAF
KERI 282342Z 2900/2924 18004KT P6SM SCT120 OVC250
     FM290800 17011KT P6SM OVC120
     FM291300 16014G20KT P6SM OVC080
     FM291500 16014G22KT P6SM VCSH OVC045
      TEMPO 2916/2918 -RASN OVC035
     FM291800 18010G18KT 1 1/2SM -SN BR OVC007
     FM292200 20009KT 1 1/2SM -SN BR OVC007=



000
FTUS41 KCLE 282300 RRA
TAFCAK
TAF
KCAK 282342Z 2900/2924 21005KT P6SM SCT120 OVC250
     FM290600 15006KT P6SM OVC120
     FM291200 15012KT P6SM OVC060
     FM291400 17014G20KT P6SM VCSH OVC045
      TEMPO 2914/2917 5SM -FZRA BR OVC025
     FM291700 19014G20KT 2SM -RA BR OVC007
     FM292000 20011KT 1 1/2SM -SN BR OVC007
     FM292300 25013KT 2SM -SN BR OVC007=



000
FTUS41 KCLE 282300 RRA
TAFMFD
TAF
KMFD 282342Z 2900/2924 15010KT P6SM BKN250
     FM290400 15005KT P6SM OVC120
     FM291100 15014G22KT P6SM OVC060
     FM291300 16015G25KT 6SM BR SCT012 OVC050
      TEMPO 2913/2915 5SM -FZRA BR OVC012
     FM291500 18015G25KT 4SM -FZRA BR OVC012
      TEMPO 2915/2918 2SM -FZRASNPL BR OVC008
     FM291800 22010G20KT 1 1/2SM -RA BR OVC007
     FM292100 22010G20KT 1 1/2SM -SN BR OVC007
     FM292300 27010G20KT 1 1/2SM -SN BR OVC007=



000
FTUS41 KCLE 282300 RRA
TAFYNG
TAF
KYNG 282342Z 2900/2924 13004KT P6SM SCT120 OVC250
     FM290800 13006KT P6SM OVC120
     FM291300 15008KT P6SM OVC080
     FM291500 16011KT P6SM VCSH OVC045
      TEMPO 2916/2918 6SM -RASN BR OVC025
     FM291800 19014G20KT 2SM -RA BR OVC007
     FM292000 20011KT 1 1/2SM -SN BR OVC007
     FM292300 25013KT 2SM -SN BR OVC007=



000
FTUS41 KCLE 282300 RRA
TAFCLE
TAF
KCLE 282342Z 2900/3006 19007KT P6SM SCT120 OVC250
     FM290600 15008KT P6SM OVC120
     FM291200 16012KT P6SM OVC050
     FM291400 18014G20KT P6SM -FZRA OVC035
      TEMPO 2914/2916 5SM -FZRA BR OVC012
     FM291600 18014G20KT 4SM -FZRA BR OVC012
      TEMPO 2916/2918 3SM -RASNPL OVC008
     FM291800 20012KT 1 1/2SM -SN OVC008
     FM292300 20012KT 2SM -SN OVC008
     FM300100 27014KT 4SM -SN BR OVC008=



000
FTUS41 KCLE 282300 RRA
TAFTOL
TAF
KTOL 282342Z 2900/2924 VRB03KT P6SM OVC250
     FM290200 15004KT P6SM OVC120
     FM290900 15008KT P6SM OVC060
     FM291100 17012G16KT 6SM BR SCT012 OVC050
      TEMPO 2911/2913 5SM -FZRA BR OVC012
     FM291300 19012G18KT 4SM -FZRA BR OVC012
      TEMPO 2914/2917 2SM -FZRAPL BR OVC008
     FM291700 23009KT 1 1/2SM -RA BR OVC007
     FM292000 28010G20KT 2SM -SN BR OVC007
     FM292200 29018G25KT 4SM -SN BR OVC015=



000
FTUS41 KCLE 282300 RRA
TAFFDY
TAF
KFDY 282342Z 2900/2924 15009KT P6SM BKN250
     FM290200 14004KT P6SM OVC120
     FM290900 14011KT P6SM OVC060
     FM291100 16014G22KT 6SM BR SCT012 OVC050
      TEMPO 2911/2913 5SM -FZRA BR OVC012
     FM291300 18015G25KT 4SM -FZRA BR OVC012
      TEMPO 2914/2917 2SM -FZRAPL BR OVC008
     FM291700 21012KT 2SM -RA BR OVC015
     FM291900 25012KT 2SM -RA BR OVC007
     FM292000 27015G25KT 4SM -SN BR OVC007=



000
FTUS41 KCLE 282000 AAA
TAFCLE
TAF AMD
KCLE 282032Z 2821/2924 19005KT P6SM SCT250
     FM290000 16008KT P6SM SCT120 OVC250
     FM290600 15008KT P6SM OVC120
     FM291200 16012KT P6SM OVC050
     FM291400 18014G20KT P6SM -FZRA OVC035
      TEMPO 2914/2916 5SM -FZRA BR OVC012
     FM291600 18014G20KT 4SM -FZRA BR OVC012
      TEMPO 2916/2918 3SM -RASNPL OVC008
     FM291800 20012KT 4SM -RASN OVC008
     FM292000 20010KT 4SM -SN OVC008=



000
FTUS41 KCLE 281700 CCA
TAFERI
TAF COR
KERI 281736Z 2818/2918 22006KT P6SM SCT250
     FM290000 18004KT P6SM SCT120 OVC250
     FM290800 17011KT P6SM OVC120
     FM291300 16014G20KT P6SM OVC080
     FM291500 16014G22KT P6SM VCSH OVC045
      TEMPO 2916/2918 -RASN OVC035=



000
FTUS41 KCLE 281700 CCA
TAFYNG
TAF COR
KYNG 281736Z 2818/2918 VRB04KT P6SM SCT250
     FM290000 13004KT P6SM SCT120 OVC250
     FM290800 13006KT P6SM OVC120
     FM291300 15008KT P6SM OVC080
     FM291500 16011KT P6SM VCSH OVC045
      TEMPO 2916/2918 6SM -RASN BR OVC025=



000
FTUS41 KCLE 281700
TAFYNG
TAF
KYNG 281720Z 2818/2918 VRB04KT P6SM SCT250
     FM290000 13004KT P6SM SCT120 OVC250
     FM290800 13006KT P6SM OVC120
     FM291300 15008KT P6SM OVC080
     FM291500 16011KT P6SM VCSH OVC045
      TEMPO 2916/2918 6SM -FZRA BR OVC025=



000
FTUS41 KCLE 281700
TAFCLE
TAF
KCLE 281720Z 2818/2924 15005KT P6SM SCT250
     FM290000 16008KT P6SM SCT120 OVC250
     FM290600 15008KT P6SM OVC120
     FM291200 16012KT P6SM OVC050
     FM291400 18014G20KT P6SM -FZRA OVC035
      TEMPO 2914/2916 5SM -FZRA BR OVC012
     FM291600 18014G20KT 4SM -FZRA BR OVC012
      TEMPO 2916/2918 3SM -RASNPL OVC008
     FM291800 20012KT 4SM -RASN OVC008
     FM292000 20010KT 4SM -SN OVC008=



000
FTUS41 KCLE 281700
TAFTOL
TAF
KTOL 281720Z 2818/2918 15006KT P6SM BKN250
     FM290200 15004KT P6SM OVC120
     FM290900 15008KT P6SM OVC060
     FM291100 17012G16KT 6SM BR SCT012 OVC050
      TEMPO 2911/2913 5SM -FZRA BR OVC012
     FM291300 19012G18KT 4SM -FZRA BR OVC012
      TEMPO 2914/2918 2SM -FZRAPL BR OVC008=



000
FTUS41 KCLE 281700
TAFERI
TAF
KERI 281720Z 2818/2918 22006KT P6SM SCT250
     FM290000 18004KT P6SM SCT120 OVC250
     FM290800 17011KT P6SM OVC120
     FM291300 16014G20KT P6SM OVC080
     FM291500 16014G22KT P6SM VCSH OVC045
      TEMPO 2916/2918 -FZRA OVC035=



000
FTUS41 KCLE 281700
TAFFDY
TAF
KFDY 281720Z 2818/2918 15006KT P6SM BKN250
     FM290200 14004KT P6SM OVC120
     FM290900 14011KT P6SM OVC060
     FM291100 16014G22KT 6SM BR SCT012 OVC050
      TEMPO 2911/2913 5SM -FZRA BR OVC012
     FM291300 18015G25KT 4SM -FZRA BR OVC012
      TEMPO 2914/2918 2SM -FZRAPL BR OVC008=



000
FTUS41 KCLE 281700
TAFMFD
TAF
KMFD 281720Z 2818/2918 16006KT P6SM BKN250
     FM290400 15005KT P6SM OVC120
     FM291100 15014G22KT P6SM OVC060
     FM291300 16015G25KT 6SM BR SCT012 OVC050
      TEMPO 2913/2915 5SM -FZRA BR OVC012
     FM291500 18015G25KT 4SM -FZRA BR OVC012
      TEMPO 2915/2918 2SM -FZRASNPL BR OVC008=



000
FTUS41 KCLE 281700
TAFCAK
TAF
KCAK 281720Z 2818/2918 VRB03KT P6SM SCT250
     FM290000 15004KT P6SM SCT120 OVC250
     FM290600 15006KT P6SM OVC120
     FM291200 15012KT P6SM OVC060
     FM291400 17014G20KT P6SM VCSH OVC045
      TEMPO 2914/2918 5SM -FZRA BR OVC025=



000
FTUS41 KCLE 281500 AAB
TAFFDY
TAF AMD
KFDY 281527Z 2815/2912 VRB03KT 5SM BR SKC
     FM281700 18006KT P6SM SCT250
     FM290100 14008KT P6SM OVC100
     FM291000 16012G20KT P6SM OVC080=



000
FTUS41 KCLE 281500 AAD
TAFCAK
TAF AMD
KCAK 281526Z 2815/2912 VRB03KT 5SM BR SCT250
     FM281700 VRB03KT P6SM SCT250
     FM290000 15006KT P6SM OVC250
     FM291000 15010G18KT P6SM OVC100=



000
FTUS41 KCLE 281500 AAA
TAFCLE
TAF AMD
KCLE 281525Z 2815/2918 VRB04KT P6SM SCT250
     FM281800 20005KT P6SM SCT250
     FM290900 15010G18KT P6SM OVC100
     FM291400 15015G25KT P6SM OVC080=



000
FTUS41 KCLE 281400 AAA
TAFMFD
TAF AMD
KMFD 281404Z 2814/2912 VRB03KT P6SM SKC
      TEMPO 2814/2815 5SM BR
     FM282000 18006KT P6SM SCT250
     FM290300 15010KT P6SM OVC100
     FM291100 16012G20KT P6SM OVC080=



000
FTUS41 KCLE 281400 AAA
TAFFDY
TAF AMD
KFDY 281403Z 2814/2912 VRB03KT P6SM SKC
      TEMPO 2814/2815 5SM BR
     FM281700 18006KT P6SM SCT250
     FM290100 14008KT P6SM OVC100
     FM291000 16012G20KT P6SM OVC080=



000
FTUS41 KCLE 281300 AAC
TAFCAK
TAF AMD
KCAK 281325Z 2813/2912 VRB03KT 5SM BR SKC
      TEMPO 2813/2815 1SM BR BKN002
     FM281500 VRB03KT P6SM FEW250
     FM290000 15006KT P6SM OVC250
     FM291000 15010G18KT P6SM OVC100=



000
FTUS41 KCLE 281300 AAB
TAFYNG
TAF AMD
KYNG 281325Z 2813/2912 VRB03KT P6SM SKC
      TEMPO 2813/2815 2SM BR
     FM290100 13006KT P6SM OVC250=



000
FTUS41 KCLE 281300 AAB
TAFCAK
TAF AMD
KCAK 281309Z 2813/2912 VRB03KT 5SM BR SKC
      TEMPO 2813/2814 1SM BR BKN002
     FM281500 VRB03KT P6SM FEW250
     FM290000 15006KT P6SM OVC250
     FM291000 15010G18KT P6SM OVC100=



000
FTUS41 KCLE 281200 AAA
TAFCAK
TAF AMD
KCAK 281250Z 2813/2912 VRB03KT 5SM BR SKC
      TEMPO 2813/2814 2SM BR
     FM281500 VRB03KT P6SM FEW250
     FM290000 15006KT P6SM OVC250
     FM291000 15010G18KT P6SM OVC100=



000
FTUS41 KCLE 281200 AAA
TAFYNG
TAF AMD
KYNG 281250Z 2813/2912 VRB03KT P6SM SKC
      TEMPO 2813/2814 2SM BR
     FM290100 13006KT P6SM OVC250=



000
FTUS41 KCLE 281100
TAFCAK
TAF
KCAK 281131Z 2812/2912 VRB03KT 5SM BR SKC
      TEMPO 2812/2814 3SM BR
     FM281500 VRB03KT P6SM FEW250
     FM290000 15006KT P6SM OVC250
     FM291000 15010G18KT P6SM OVC100=



000
FTUS41 KCLE 281100
TAFTOL
TAF
KTOL 281131Z 2812/2912 VRB03KT P6SM SKC
     FM281700 17005KT P6SM SCT250
     FM290100 14006KT P6SM OVC100
     FM291100 17010G18KT P6SM OVC080=



000
FTUS41 KCLE 281100
TAFERI
TAF
KERI 281131Z 2812/2912 VRB04KT P6SM SKC
     FM290200 17005KT P6SM OVC250
     FM291000 16010G18KT P6SM OVC100=



000
FTUS41 KCLE 281100
TAFYNG
TAF
KYNG 281131Z 2812/2912 VRB03KT P6SM SKC
      TEMPO 2812/2814 4SM BR
     FM290100 13006KT P6SM OVC250=



000
FTUS41 KCLE 281100
TAFFDY
TAF
KFDY 281131Z 2812/2912 VRB03KT P6SM SKC
      TEMPO 2812/2814 5SM BR
     FM281700 18006KT P6SM SCT250
     FM290100 14008KT P6SM OVC100
     FM291000 16012G20KT P6SM OVC080=



000
FTUS41 KCLE 281100
TAFMFD
TAF
KMFD 281131Z 2812/2912 VRB03KT P6SM SKC
      TEMPO 2812/2814 5SM BR
     FM282000 18006KT P6SM SCT250
     FM290300 15010KT P6SM OVC100
     FM291100 16012G20KT P6SM OVC080=



000
FTUS41 KCLE 281100
TAFCLE
TAF
KCLE 281131Z 2812/2918 VRB03KT P6SM SKC
      TEMPO 2812/2814 5SM BR
     FM282100 15005KT P6SM SCT250
     FM290900 15010G18KT P6SM OVC100
     FM291400 15015G25KT P6SM OVC080=



000
FTUS41 KCLE 280800 AAA
TAFCLE
TAF AMD
KCLE 280852Z 2809/2912 VRB03KT P6SM SKC
     FM290000 17005KT P6SM OVC250
     FM290600 17010G18KT P6SM OVC070=



000
FTUS41 KCLE 280700 AAA
TAFCAK
TAF AMD
KCAK 280756Z 2808/2906 VRB03KT P6SM FEW012
      TEMPO 2808/2812 5SM BR
     FM281500 VRB03KT P6SM SKC
     FM282300 17005KT P6SM SCT250=



000
FTUS41 KCLE 280700 AAA
TAFFDY
TAF AMD
KFDY 280755Z 2808/2906 VRB03KT P6SM SKC
      TEMPO 2808/2812 5SM BR
     FM281500 VRB03KT P6SM SKC
     FM282300 17005KT P6SM OVC250=



000
FTUS41 KCLE 280500
TAFCAK
TAF
KCAK 280526Z 2806/2906 34008KT P6SM SCT012
     FM280700 VRB03KT P6SM SKC
     FM281000 VRB03KT 6SM BR SKC
     FM281500 VRB03KT P6SM SKC
     FM282300 17005KT P6SM SCT250=



000
FTUS41 KCLE 280500
TAFMFD
TAF
KMFD 280526Z 2806/2906 VRB03KT 6SM BR SKC
     FM281000 VRB03KT 5SM BR SKC
     FM281200 VRB03KT P6SM SKC
     FM290000 17005KT P6SM OVC250
     FM290300 17010G15KT P6SM OVC250=



000
FTUS41 KCLE 280500
TAFCLE
TAF
KCLE 280526Z 2806/2912 33005KT P6SM SCT020
     FM280800 VRB03KT P6SM SKC
     FM290000 17005KT P6SM OVC250
     FM290400 17010G15KT P6SM OVC250
     FM290600 17010G15KT P6SM OVC070=



000
FTUS41 KCLE 280500
TAFTOL
TAF
KTOL 280526Z 2806/2906 32005KT P6SM SKC
     FM281500 VRB03KT P6SM SKC
     FM282300 17005KT P6SM OVC250=



000
FTUS41 KCLE 280500
TAFFDY
TAF
KFDY 280526Z 2806/2906 29005KT P6SM SKC
     FM281500 VRB03KT P6SM SKC
     FM282300 17005KT P6SM OVC250=



000
FTUS41 KCLE 280500
TAFERI
TAF
KERI 280526Z 2806/2906 34005KT P6SM FEW025
     FM280800 VRB03KT P6SM SKC
     FM282300 VRB03KT P6SM SCT250=



000
FTUS41 KCLE 280500
TAFYNG
TAF
KYNG 280526Z 2806/2906 30004KT P6SM SCT015
     FM281400 VRB03KT P6SM SKC
     FM282300 VRB03KT P6SM SCT250=



000
FTUS41 KCLE 280300 AAA
TAFCAK
TAF AMD
KCAK 280347Z 2804/2824 VRB03KT P6SM OVC011
     FM280700 VRB03KT P6SM SKC
     FM281000 VRB03KT 6SM BR SKC
     FM281500 30005KT P6SM SCT030 BKN200=



000
FTUS41 KCLE 280300 AAA
TAFCAK
TAF AMD
KCAK 280347Z 2804/2824 VRB03KT P6SM OVC011
     FM280700 VRB03KT P6SM SKC
     FM281000 VRB03KT 6SM BR SKC
     FM281500 30005KT P6SM SCT030 BKN200=



000
FTUS41 KCLE 280300 AAA
TAFMFD
TAF AMD
KMFD 280346Z 2804/2824 31006KT P6SM SKC
     FM281000 32003KT 5SM BR SKC
     FM281500 22004KT P6SM SCT030 BKN150=



000
FTUS41 KCLE 280300 AAA
TAFMFD
TAF AMD
KMFD 280346Z 2804/2824 31006KT P6SM SKC
     FM281000 32003KT 5SM BR SKC
     FM281500 22004KT P6SM SCT030 BKN150=



000
FTUS41 KCLE 280300 AAB
TAFCLE
TAF AMD
KCLE 280301Z 2803/2906 33008KT P6SM SCT015 BKN250
      TEMPO 2803/2804 OVC015
     FM280400 33006KT P6SM SKC
     FM281500 30005KT P6SM BKN250
     FM282300 18005KT P6SM BKN250=



000
FTUS41 KCLE 280300 AAB
TAFCLE
TAF AMD
KCLE 280301Z 2803/2906 33008KT P6SM SCT015 BKN250
      TEMPO 2803/2804 OVC015
     FM280400 33006KT P6SM SKC
     FM281500 30005KT P6SM BKN250
     FM282300 18005KT P6SM BKN250=



000
FTUS41 KCLE 280100 AAA
TAFERI
TAF AMD
KERI 280131Z 2802/2824 34005KT P6SM BKN025
     FM280400 VRB03KT P6SM SKC
     FM281700 VRB03KT P6SM SCT250=



000
FTUS41 KCLE 280100 AAA
TAFCLE
TAF AMD
KCLE 280130Z 2802/2906 33008KT P6SM SCT015 BKN250
      TEMPO 2802/2804 OVC015
     FM280400 33006KT P6SM SKC
     FM281500 30005KT P6SM BKN250
     FM282300 18005KT P6SM BKN250=



000
FTUS41 KCLE 272300
TAFCAK
TAF
KCAK 272339Z 2800/2824 34010KT P6SM OVC035
     FM280700 VRB03KT 6SM BR SKC
     FM281500 30005KT P6SM SCT030 BKN200=



000
FTUS41 KCLE 272300
TAFMFD
TAF
KMFD 272339Z 2800/2824 31006KT P6SM FEW015
     FM280300 32003KT 5SM BR SCT025
     FM281500 22004KT P6SM SCT030 BKN150=



000
FTUS41 KCLE 272300
TAFTOL
TAF
KTOL 272339Z 2800/2824 32005KT P6SM SKC
     FM281500 VRB03KT P6SM SCT030 BKN120=



000
FTUS41 KCLE 272300
TAFCLE
TAF
KCLE 272339Z 2800/2906 33008KT P6SM SCT015 BKN250
     FM280400 33006KT P6SM SKC
     FM281500 30005KT P6SM BKN250
     FM282300 18005KT P6SM BKN250=



000
FTUS41 KCLE 272300
TAFYNG
TAF
KYNG 272339Z 2800/2824 34010KT 5SM -SN BKN015 OVC025
      TEMPO 2800/2802 6SM -SN SCT015 OVC025
     FM280200 34006KT P6SM OVC025
     FM280800 32005KT 6SM BR SCT025
     FM281400 29004KT P6SM BKN025
     FM281700 VRB03KT P6SM SCT250=



000
FTUS41 KCLE 272300
TAFERI
TAF
KERI 272339Z 2800/2824 34005KT P6SM BKN025
     FM280100 35005KT P6SM SKC
     FM280400 VRB03KT P6SM SKC
     FM281700 VRB03KT P6SM SCT250=



000
FTUS41 KCLE 272300
TAFFDY
TAF
KFDY 272339Z 2800/2824 29005KT P6SM SKC
     FM281500 VRB03KT P6SM SCT030 BKN120=



000
FTUS41 KCLE 272100 AAA
TAFERI
TAF AMD
KERI 272111Z 2721/2818 36008KT P6SM OVC012
      TEMPO 2721/2723 6SM -SN
     FM272300 36008KT P6SM OVC020
     FM280400 35008KT P6SM BKN025
     FM280800 32005KT P6SM SCT025=



000
FTUS41 KCLE 272100 AAA
TAFMFD
TAF AMD
KMFD 272109Z 2721/2818 32010KT P6SM FEW015
     FM280300 32003KT 5SM BR SCT025
     FM281500 22004KT P6SM SCT030 BKN150=



000
FTUS41 KCLE 272000 AAB
TAFCLE
TAF AMD
KCLE 272041Z 2721/2824 34008KT P6SM SCT015 BKN250
     FM280400 33006KT P6SM SKC=



000
FTUS41 KCLE 271800 AAA
TAFCLE
TAF AMD
KCLE 271856Z 2719/2824 36010KT P6SM SCT025 BKN080
      TEMPO 2719/2722 5SM -SN BKN025
     FM280400 33006KT P6SM SKC=



000
FTUS41 KCLE 271700 RRA
TAFCAK
TAF
KCAK 271742Z 2718/2818 36010KT 6SM -SN OVC025
      TEMPO 2718/2722 3SM -SN OVC015
     FM280100 35006KT P6SM OVC025
     FM280700 34005KT 5SM BR SCT025
     FM281500 30005KT P6SM SCT030 BKN200=



000
FTUS41 KCLE 271700 RRA
TAFMFD
TAF
KMFD 271742Z 2718/2818 35010KT 6SM -SN SCT012 OVC025
      TEMPO 2718/2721 3SM -SN BKN012
     FM272200 34005KT P6SM SCT012 BKN025
     FM280300 32003KT 5SM BR SCT025
     FM281500 22004KT P6SM SCT030 BKN150=



000
FTUS41 KCLE 271700 RRA
TAFTOL
TAF
KTOL 271742Z 2718/2818 35007KT P6SM SCT025
     FM281500 22003KT P6SM SCT030 BKN120=



000
FTUS41 KCLE 271700 RRA
TAFFDY
TAF
KFDY 271742Z 2718/2818 35007KT P6SM SCT025
     FM281500 22003KT P6SM SCT030 BKN120=



000
FTUS41 KCLE 271700 RRA
TAFYNG
TAF
KYNG 271742Z 2718/2818 34010KT 5SM -SN BKN015 OVC025
      TEMPO 2718/2722 6SM -SN SCT015 OVC025
     FM280200 34006KT P6SM OVC025
     FM280800 32005KT 5SM BR SCT025=



000
FTUS41 KCLE 271700 RRA
TAFCLE
TAF
KCLE 271742Z 2718/2824 35010KT 3SM -SN SCT012 OVC025
      TEMPO 2718/2722 2SM -SN BKN025
     FM272200 34008KT 6SM -SN OVC025
     FM280400 33006KT P6SM SCT025=



000
FTUS41 KCLE 271700 RRA
TAFERI
TAF
KERI 271742Z 2718/2818 01010KT 1 1/2SM -SN BKN009 OVC015
      TEMPO 2718/2722 3SM -SN SCT009
     FM272300 36008KT 3SM -SN OVC020
     FM280400 35008KT P6SM BKN025
     FM280800 32005KT P6SM SCT025=



000
FTUS41 KCLE 271500 AAA
TAFERI
TAF AMD
KERI 271509Z 2715/2812 03009KT 1 1/2SM -SN BKN012 OVC025
      TEMPO 2715/2719 3SM -SN SCT012 OVC020
     FM271900 02010KT 4SM -SN BKN015 OVC025
     FM280000 35008KT P6SM BKN020
     FM280400 32005KT P6SM SCT020=



000
FTUS41 KCLE 271400 AAA
TAFMFD
TAF AMD
KMFD 271458Z 2715/2812 33010KT 3SM -SN SCT012 OVC020
      TEMPO 2715/2719 2SM -SN OVC012
     FM272200 34005KT P6SM SCT012 OVC020
     FM280300 33003KT 6SM BR SCT020=



000
FTUS41 KCLE 271400 AAA
TAFCLE
TAF AMD
KCLE 271456Z 2715/2818 01012KT 3SM -SN OVC012
      TEMPO 2715/2719 1 1/2SM -SN
     FM272300 34010KT P6SM OVC020
     FM280400 33006KT P6SM SCT025=



000
FTUS41 KCLE 271100
TAFYNG
TAF
KYNG 271128Z 2712/2812 34008KT 4SM -SN SCT009 OVC014
      TEMPO 2712/2716 2SM -SN BKN009 OVC012
     FM272100 34008KT P6SM OVC020
     FM280400 32004KT P6SM SKC=



000
FTUS41 KCLE 271100
TAFMFD
TAF
KMFD 271128Z 2712/2812 31004KT 6SM BR OVC020
      TEMPO 2712/2715 4SM -SN BKN009 OVC012
     FM271600 35005KT P6SM SCT012 OVC020
     FM280300 32003KT 6SM BR SKC=



000
FTUS41 KCLE 271100
TAFCLE
TAF
KCLE 271128Z 2712/2818 36006KT 5SM -SN BKN012 OVC030
      TEMPO 2712/2714 2SM -SN SCT010 OVC020
     FM271800 34010KT P6SM OVC025
     FM280300 32005KT P6SM SCT025
     FM281500 25004KT P6SM SCT025=



000
FTUS41 KCLE 271100
TAFERI
TAF
KERI 271128Z 2712/2812 03009KT 4SM -SN BKN012 OVC025
      TEMPO 2712/2715 1 1/2SM -SN BKN009 OVC020
     FM271500 02010KT 4SM -SN BKN015 OVC025
     FM272200 35008KT P6SM BKN020
     FM280400 32005KT P6SM SCT020=



000
FTUS41 KCLE 271100
TAFTOL
TAF
KTOL 271128Z 2712/2812 36003KT P6SM FEW015 BKN120
      TEMPO 2712/2714 4SM BR
     FM271800 34010KT P6SM SCT025
     FM280400 32003KT P6SM SKC=



000
FTUS41 KCLE 271100
TAFCAK
TAF
KCAK 271128Z 2712/2812 34006KT 4SM -SN SCT012 OVC025
      TEMPO 2712/2716 2SM -SN BKN012
     FM271700 34008KT P6SM OVC025
     FM280400 34005KT P6SM SKC=



000
FTUS41 KCLE 271100
TAFFDY
TAF
KFDY 271128Z 2712/2812 VRB03KT 6SM BR FEW015 BKN120
      TEMPO 2712/2714 4SM BR
     FM271700 35007KT P6SM SCT020 BKN100
     FM280400 34005KT P6SM SKC=



000
FTUS41 KCLE 270900 AAB
TAFMFD
TAF AMD
KMFD 270905Z 2709/2806 31004KT 5SM BR OVC018
      TEMPO 2710/2714 3SM -SN BKN009 OVC012
     FM271600 35005KT P6SM SCT012 OVC020
     FM280300 32003KT 6SM BR SKC=



000
FTUS41 KCLE 270900 AAB
TAFFDY
TAF AMD
KFDY 270903Z 2709/2806 VRB03KT 6SM BR FEW015 BKN120
      TEMPO 2710/2714 4SM BR
     FM271700 35007KT P6SM SCT020 BKN100
     FM280400 34005KT P6SM SKC=



000
FTUS41 KCLE 270900 AAA
TAFTOL
TAF AMD
KTOL 270902Z 2709/2806 36003KT P6SM FEW015 SCT120
      TEMPO 2710/2714 4SM BR
     FM271800 34010KT P6SM SCT025
     FM280400 32003KT P6SM SKC=



000
FTUS41 KCLE 270900 AAA
TAFERI
TAF AMD
KERI 270900Z 2709/2806 03009KT P6SM BKN012 OVC025
      TEMPO 2711/2715 4SM -SN SCT009 OVC020
     FM271500 02010KT 4SM -SN BKN015 OVC025
     FM272200 35008KT P6SM BKN020
     FM280400 35005KT P6SM SCT020=



000
FTUS41 KCLE 270800 AAA
TAFCAK
TAF AMD
KCAK 270858Z 2709/2806 34006KT 4SM -SN OVC020
      TEMPO 2709/2713 2SM -SN BKN012
     FM271300 34006KT 4SM -SN OVC020
      TEMPO 2713/2716 2SM -SN BKN012
     FM271700 34008KT P6SM OVC025
     FM280400 34005KT P6SM SKC=



000
FTUS41 KCLE 270800 AAA
TAFCLE
TAF AMD
KCLE 270856Z 2709/2812 36006KT 4SM -SN SCT012 OVC025
      TEMPO 2710/2714 2SM -SN BKN012
     FM271800 34010KT P6SM OVC025
     FM280300 31005KT P6SM SCT025=



000
FTUS41 KCLE 270600 AAA
TAFMFD
TAF AMD
KMFD 270646Z 2707/2806 30003KT 6SM BR OVC018
      TEMPO 2709/2713 4SM -SN BKN009 OVC012
     FM271700 35005KT P6SM SCT012 OVC020
     FM280400 32003KT 6SM BR SKC=



000
FTUS41 KCLE 270600 AAA
TAFFDY
TAF AMD
KFDY 270644Z 2707/2806 VRB03KT 6SM BR FEW015 BKN120
      TEMPO 2707/2711 3SM BR
     FM271700 35007KT P6SM SCT020 BKN100
     FM280400 34005KT P6SM SKC=



000
FTUS41 KCLE 270500
TAFTOL
TAF
KTOL 270532Z 2706/2806 36003KT P6SM SCT015 BKN200
      TEMPO 2708/2712 4SM BR
     FM271800 34010KT P6SM BKN025
     FM280400 32003KT P6SM SKC=



000
FTUS41 KCLE 270500
TAFMFD
TAF
KMFD 270532Z 2706/2806 34003KT 4SM BR OVC015
      TEMPO 2710/2714 -SN BKN009 OVC012
     FM271700 35005KT P6SM SCT012 OVC020
     FM280400 32003KT 6SM BR SKC=



000
FTUS41 KCLE 270500
TAFCLE
TAF
KCLE 270532Z 2706/2812 36006KT 4SM -SN SCT012 OVC025
      TEMPO 2710/2714 2SM -SN BKN009 OVC012
     FM271800 34010KT P6SM OVC025
     FM280300 31005KT P6SM SCT025=



000
FTUS41 KCLE 270500
TAFERI
TAF
KERI 270532Z 2706/2806 05009KT P6SM BKN015 OVC030
      TEMPO 2706/2710 4SM -SN SCT010 OVC025
     FM271000 02010KT 4SM -SN BKN015 OVC025
     FM272000 36008KT P6SM BKN020
     FM280200 35005KT P6SM SCT020=



000
FTUS41 KCLE 270500
TAFYNG
TAF
KYNG 270532Z 2706/2806 34008KT 4SM -SN SCT009 OVC014
      TEMPO 2706/2710 2SM -SN BKN009 OVC012
     FM271000 34008KT 4SM -SN SCT009 OVC014
      TEMPO 2710/2714 2SM -SN BKN009 OVC012
     FM272100 34008KT P6SM OVC020
     FM280400 32004KT P6SM SKC=



000
FTUS41 KCLE 270500
TAFCAK
TAF
KCAK 270532Z 2706/2806 35006KT 4SM -SN OVC015
      TEMPO 2706/2710 2SM -SN BKN009 OVC012
     FM271000 35006KT 4SM -SN OVC015
      TEMPO 2710/2714 2SM -SN BKN009 OVC012
     FM271700 34008KT P6SM OVC025
     FM280400 34005KT P6SM SKC=



000
FTUS41 KCLE 270500
TAFFDY
TAF
KFDY 270532Z 2706/2806 36003KT 3SM BR SCT015 BKN200
      TEMPO 2706/2710 2SM BR
     FM271700 35010KT P6SM BKN025
     FM280400 34005KT P6SM SKC=



000
FTUS41 KCLE 270300 AAA
TAFFDY
TAF AMD
KFDY 270301Z 2703/2724 36003KT 3SM BR SCT080
     FM271000 02004KT 5SM BR BKN012
     FM271700 35010KT P6SM BKN025=



000
FTUS41 KCLE 270200 AAB
TAFYNG
TAF AMD
KYNG 270259Z 2703/2724 35008KT 6SM -SN SCT009 OVC012
      TEMPO 2708/2712 BKN009 OVC012
     FM272100 34008KT P6SM SCT009 OVC012=



000
FTUS41 KCLE 270200 AAA
TAFCLE
TAF AMD
KCLE 270256Z 2703/2806 31006KT 5SM -SN BKN017 OVC025
      TEMPO 2703/2707 SCT017 OVC025
     FM271200 34005KT 6SM -SN OVC012
      TEMPO 2712/2715 3SM -SN BKN009 OVC012
     FM272100 34010KT P6SM OVC025
     FM280300 31005KT P6SM SCT025=



000
FTUS41 KCLE 270100 AAA
TAFYNG
TAF AMD
KYNG 270106Z 2701/2724 35008KT 6SM -SN BKN009 OVC012
     FM272100 34008KT P6SM SCT009 OVC012=



000
FTUS41 KCLE 262300
TAFTOL
TAF
KTOL 262331Z 2700/2724 36003KT P6SM SCT015 BKN200
     FM270700 03004KT P6SM OVC015
     FM271500 34010KT P6SM BKN025=



000
FTUS41 KCLE 262300
TAFCAK
TAF
KCAK 262331Z 2700/2724 35006KT 6SM -SN OVC012
      TEMPO 2710/2714 3SM -SN BKN009 OVC012=



000
FTUS41 KCLE 262300
TAFERI
TAF
KERI 262331Z 2700/2724 05010KT P6SM -SN OVC012
     FM270700 02010KT 2SM -SN OVC012
     FM272000 36008KT 6SM -SN OVC015=



000
FTUS41 KCLE 262300
TAFCLE
TAF
KCLE 262331Z 2700/2806 36008KT 6SM -SN OVC012
      TEMPO 2700/2703 SCT012 OVC025
     FM271200 34005KT 6SM -SN OVC012
      TEMPO 2712/2715 3SM -SN BKN009 OVC012
     FM272100 34010KT P6SM OVC025
     FM280300 31005KT P6SM SCT025=



000
FTUS41 KCLE 262300
TAFMFD
TAF
KMFD 262331Z 2700/2724 34008KT P6SM OVC012
      TEMPO 2710/2714 BKN009 OVC012=



000
FTUS41 KCLE 262300
TAFYNG
TAF
KYNG 262331Z 2700/2724 35008KT 6SM -SN OVC012
     FM270600 35008KT 6SM -SN BKN009 OVC012
     FM272100 34008KT P6SM SCT009 OVC012=



000
FTUS41 KCLE 262300
TAFFDY
TAF
KFDY 262331Z 2700/2724 36003KT P6SM SCT012
     FM271000 02004KT P6SM OVC012
     FM271700 35010KT P6SM BKN025=



000
FTUS41 KCLE 262100 AAA
TAFERI
TAF AMD
KERI 262153Z 2622/2718 05014KT P6SM -SN OVC010
     FM270700 04010KT 2SM -SN OVC012=



000
FTUS41 KCLE 262100 AAA
TAFYNG
TAF AMD
KYNG 262150Z 2622/2718 35011KT P6SM OVC015
     FM270000 35006KT 6SM -SN OVC012=



000
FTUS41 KCLE 262100 AAA
TAFCAK
TAF AMD
KCAK 262149Z 2622/2718 33011KT P6SM OVC012
     FM270000 35006KT 6SM -SN BKN012 OVC025=



000
FTUS41 KCLE 262100 AAA
TAFMFD
TAF AMD
KMFD 262147Z 2622/2718 34014KT P6SM OVC012
      TEMPO 2622/2702 SCT012 SCT025
     FM270200 34007KT P6SM OVC012=



000
FTUS41 KCLE 262100 AAA
TAFFDY
TAF AMD
KFDY 262144Z 2622/2718 01008KT P6SM SCT012
     FM270700 02004KT P6SM OVC012=



000
FTUS41 KCLE 262100 AAA
TAFTOL
TAF AMD
KTOL 262140Z 2622/2718 36008KT P6SM SCT015 BKN200
     FM270700 03004KT P6SM OVC015
     FM271500 34010KT P6SM BKN025=



    US Dept of Commerce
    National Oceanic and Atmospheric Administration
    National Weather Service
    1325 East West Highway
    Silver Spring, MD 20910
    Page Author: NWS Internet Services Team
Disclaimer
Information Quality
Credits
Glossary
Privacy Policy
Freedom of Information Act (FOIA)
About Us
Career Opportunities